Anderson Springs, California
Current Conditions -  °F | °C
As of 8:53 AM on Sunday 23 Nov 2014 (Local Time) from KSTS Reporting Station
Broken Clouds Broken Clouds  
Wind Chill: 10°   Ceiling: 15000
Heat Index: 10°   Visibility: 10mi
Dew Point:   Wind: 3mph
Humidity: 86%   Direction: 320°NW
Pressure: 30.33"   Gusts: NA
Location:  38.7763°N, 122.598°W
Report Text: KSTS 231653Z 32003KT 10SM BKN150 10/08 A3033 RMK AO2 SLP264 T01000078
Loading
Personal Weather Stations






























Interactive Weather Map New forecast layout! Learn more

10-Day Weather Forecast

Advertisements
Track Severe Weather on mobile